createdAt,value
2022-12-18T00:01:49.324Z,74.18
2022-12-18T00:04:22.373Z,74.71
2022-12-18T00:07:10.435Z,74.72
2022-12-18T00:09:40.845Z,75.92
2022-12-18T00:14:48.877Z,77.07
2022-12-18T00:17:20.009Z,77.70
2022-12-18T00:19:50.982Z,76.64
2022-12-18T00:22:19.002Z,75.93
2022-12-18T00:24:56.006Z,76.86
2022-12-18T00:27:27.917Z,76.40
2022-12-18T00:30:00.937Z,75.17
2022-12-18T00:32:30.188Z,75.24
2022-12-18T00:35:07.170Z,74.99
2022-12-18T00:37:38.238Z,75.19
2022-12-18T00:40:13.751Z,74.49
2022-12-18T00:43:00.224Z,75.37
2022-12-18T00:45:32.576Z,75.63
2022-12-18T00:48:02.353Z,76.66
2022-12-18T00:50:33.451Z,76.59
2022-12-18T00:53:24.257Z,77.34
2022-12-18T00:55:54.642Z,77.81
2022-12-18T00:58:39.240Z,77.46
2022-12-18T01:01:13.744Z,78.81
2022-12-18T01:03:46.176Z,78.55
2022-12-18T01:06:17.362Z,79.33
2022-12-18T01:08:46.075Z,80.15
2022-12-18T01:11:24.779Z,79.53
2022-12-18T01:14:00.712Z,79.89
2022-12-18T01:16:37.680Z,80.07
2022-12-18T01:19:15.589Z,79.27
2022-12-18T01:21:56.735Z,79.64
2022-12-18T01:24:28.392Z,79.72
2022-12-18T01:26:59.433Z,80.19
2022-12-18T01:29:35.763Z,79.90
2022-12-18T01:32:05.096Z,78.68
2022-12-18T01:34:39.409Z,79.43
2022-12-18T01:37:28.845Z,79.26
2022-12-18T01:39:59.522Z,80.50
2022-12-18T01:42:30.235Z,80.95
2022-12-18T01:45:17.051Z,80.24
2022-12-18T01:48:09.891Z,79.80
2022-12-18T01:50:46.207Z,80.78
2022-12-18T01:53:24.840Z,81.70
2022-12-18T01:56:00.247Z,81.13
2022-12-18T01:58:44.812Z,81.26
2022-12-18T02:01:17.097Z,81.97
2022-12-18T02:03:49.753Z,81.57
2022-12-18T02:06:26.266Z,80.69
2022-12-18T02:12:23.025Z,79.40
2022-12-18T02:15:02.973Z,80.02
2022-12-18T02:17:44.518Z,80.52
2022-12-18T02:20:23.747Z,81.16
2022-12-18T02:23:08.640Z,81.11
2022-12-18T02:26:16.841Z,81.83
2022-12-18T02:28:56.166Z,82.53
2022-12-18T02:31:37.391Z,82.46
2022-12-18T02:34:14.928Z,82.83
2022-12-18T02:36:57.149Z,81.55
2022-12-18T02:39:27.709Z,80.41
2022-12-18T02:42:11.715Z,81.02
2022-12-18T02:44:52.911Z,81.26
2022-12-18T02:47:31.680Z,82.10
2022-12-18T02:50:09.141Z,82.70
2022-12-18T02:52:49.663Z,82.48
2022-12-18T02:55:40.795Z,81.76
2022-12-18T02:58:21.087Z,81.77
2022-12-18T03:01:03.546Z,82.52
2022-12-18T03:03:41.371Z,82.94
2022-12-18T03:06:25.867Z,82.99
2022-12-18T03:09:05.781Z,82.07
2022-12-18T03:11:56.629Z,81.38
2022-12-18T03:14:38.315Z,81.54
2022-12-18T03:17:12.717Z,80.92
2022-12-18T03:19:44.178Z,80.56
2022-12-18T03:22:12.598Z,82.44
2022-12-18T03:25:04.141Z,83.39
2022-12-18T03:27:43.338Z,81.04
2022-12-18T03:30:20.949Z,81.61
2022-12-18T03:33:05.312Z,83.04
2022-12-18T03:35:39.933Z,83.11
2022-12-18T03:38:10.959Z,83.34
2022-12-18T03:40:52.654Z,83.93
2022-12-18T03:43:33.022Z,82.44
2022-12-18T03:46:06.151Z,81.80
2022-12-18T03:48:45.818Z,83.00
2022-12-18T03:51:28.216Z,83.13
2022-12-18T03:54:00.335Z,82.63
2022-12-18T03:56:41.553Z,82.00
2022-12-18T03:59:11.442Z,82.07
2022-12-18T04:01:47.942Z,83.11
2022-12-18T04:04:26.651Z,81.63
2022-12-18T04:07:01.146Z,82.65
2022-12-18T04:09:40.176Z,81.88
2022-12-18T04:12:15.120Z,82.06
2022-12-18T04:14:55.190Z,82.91
2022-12-18T04:17:27.758Z,82.17
2022-12-18T04:20:12.814Z,81.13
2022-12-18T04:22:45.189Z,82.32
2022-12-18T04:25:16.946Z,82.78
2022-12-18T04:28:07.715Z,81.93
2022-12-18T04:30:40.614Z,82.74
2022-12-18T04:33:14.602Z,83.29
2022-12-18T04:36:03.501Z,82.67
2022-12-18T04:38:32.622Z,82.64
2022-12-18T04:41:13.790Z,82.06
2022-12-18T04:43:46.182Z,82.16
2022-12-18T04:46:16.573Z,82.78
2022-12-18T04:48:58.690Z,82.81
2022-12-18T04:51:33.879Z,82.39
2022-12-18T04:54:04.846Z,82.17
2022-12-18T04:56:48.446Z,82.98
2022-12-18T04:59:16.501Z,82.78
2022-12-18T05:01:48.356Z,83.07
2022-12-18T05:04:25.068Z,82.54
2022-12-18T05:06:55.974Z,82.38
2022-12-18T05:09:33.166Z,82.70
2022-12-18T05:12:10.404Z,82.75
2022-12-18T05:14:41.300Z,82.99
2022-12-18T05:17:23.459Z,83.57
2022-12-18T05:19:58.449Z,83.27
2022-12-18T05:22:42.090Z,83.87
2022-12-18T05:25:19.120Z,83.44
2022-12-18T05:27:51.431Z,84.04
2022-12-18T05:30:32.073Z,83.57
2022-12-18T05:33:08.487Z,84.07
2022-12-18T05:35:43.565Z,84.30
2022-12-18T05:38:22.175Z,83.42
2022-12-18T05:40:58.723Z,83.49
2022-12-18T05:43:39.748Z,83.83
2022-12-18T05:46:17.236Z,84.54
2022-12-18T05:48:51.748Z,84.93
2022-12-18T05:51:28.214Z,85.70
2022-12-18T05:54:00.157Z,87.14
2022-12-18T05:56:48.522Z,87.70
2022-12-18T05:59:17.443Z,87.48
2022-12-18T06:01:53.947Z,87.25
2022-12-18T06:04:31.432Z,87.64
2022-12-18T06:07:09.266Z,88.32
2022-12-18T06:09:43.591Z,87.96
2022-12-18T06:12:13.255Z,88.41
2022-12-18T06:14:42.716Z,88.95
2022-12-18T06:17:11.848Z,88.29
2022-12-18T06:19:43.679Z,88.22
2022-12-18T06:22:21.905Z,88.55
2022-12-18T06:24:54.075Z,88.26
2022-12-18T06:27:26.126Z,87.72
2022-12-18T06:30:02.626Z,87.34
2022-12-18T06:32:46.651Z,87.47
2022-12-18T06:35:27.422Z,87.82
2022-12-18T06:37:58.086Z,87.31
2022-12-18T06:40:34.167Z,87.14
2022-12-18T06:43:03.469Z,87.63
2022-12-18T06:45:42.031Z,86.64
2022-12-18T06:48:13.420Z,86.88
2022-12-18T06:50:49.465Z,86.57
2022-12-18T06:53:18.639Z,86.11
2022-12-18T06:55:57.578Z,86.65
2022-12-18T06:58:27.746Z,86.88
2022-12-18T07:00:58.458Z,87.06
2022-12-18T07:03:30.032Z,86.71
2022-12-18T07:06:00.959Z,87.44
2022-12-18T07:08:32.109Z,87.16
2022-12-18T07:11:15.093Z,87.69
2022-12-18T07:13:46.790Z,88.56
2022-12-18T07:16:24.701Z,89.25
2022-12-18T07:19:02.008Z,88.74
2022-12-18T07:21:32.525Z,89.68
2022-12-18T07:24:01.663Z,88.99
2022-12-18T07:26:38.787Z,89.78
2022-12-18T07:29:16.156Z,88.93
2022-12-18T07:31:52.083Z,89.84
2022-12-18T07:34:30.208Z,90.10
2022-12-18T07:36:59.236Z,90.20
2022-12-18T07:39:33.344Z,90.44
2022-12-18T07:42:22.514Z,90.43
2022-12-18T07:44:59.759Z,91.25
2022-12-18T07:47:34.348Z,88.98
2022-12-18T07:50:08.997Z,89.33
2022-12-18T07:52:39.399Z,89.55
2022-12-18T07:55:11.230Z,89.13
2022-12-18T07:57:54.345Z,89.14
2022-12-18T08:00:32.461Z,88.48
2022-12-18T08:03:07.833Z,87.77
2022-12-18T08:05:38.822Z,88.29
2022-12-18T08:08:08.753Z,88.33
2022-12-18T08:10:49.386Z,88.07
2022-12-18T08:13:26.964Z,88.47
2022-12-18T08:16:09.704Z,88.71
2022-12-18T08:18:43.010Z,88.63
2022-12-18T08:21:22.171Z,87.97
2022-12-18T08:23:53.980Z,87.81
2022-12-18T08:26:25.912Z,85.95
2022-12-18T08:28:56.989Z,87.03
2022-12-18T08:31:28.389Z,87.90
2022-12-18T08:34:00.116Z,87.81
2022-12-18T08:36:44.373Z,88.04
2022-12-18T08:39:13.908Z,87.79
2022-12-18T08:41:43.357Z,87.50
2022-12-18T08:44:32.677Z,86.73
2022-12-18T08:47:01.437Z,87.04
2022-12-18T08:49:34.442Z,87.06
2022-12-18T08:52:03.960Z,87.15
2022-12-18T08:54:34.844Z,86.73
2022-12-18T08:57:05.507Z,86.43
2022-12-18T08:59:42.292Z,86.21
2022-12-18T09:02:14.464Z,86.57
2022-12-18T09:04:46.909Z,87.07
2022-12-18T09:07:22.103Z,86.75
2022-12-18T09:10:03.559Z,86.42
2022-12-18T09:12:34.496Z,86.50
2022-12-18T09:15:12.442Z,86.48
2022-12-18T09:17:48.153Z,86.83
2022-12-18T09:20:18.896Z,85.90
2022-12-18T09:22:55.646Z,84.10
2022-12-18T09:25:35.442Z,83.89
2022-12-18T09:28:07.339Z,83.86
2022-12-18T09:30:49.109Z,84.13
2022-12-18T09:33:23.190Z,84.92
2022-12-18T09:35:53.671Z,84.21
2022-12-18T09:38:34.526Z,84.25
2022-12-18T09:41:15.780Z,83.38
2022-12-18T09:43:57.569Z,81.83
2022-12-18T09:46:38.199Z,83.52
2022-12-18T09:49:12.604Z,83.45
2022-12-18T09:51:45.632Z,82.91
2022-12-18T09:54:21.736Z,82.51
2022-12-18T09:57:00.374Z,82.40
2022-12-18T09:59:42.317Z,83.08
2022-12-18T10:02:25.739Z,83.07
2022-12-18T10:05:10.896Z,83.01
2022-12-18T10:07:53.309Z,83.05
2022-12-18T10:10:46.336Z,82.25
2022-12-18T10:16:36.937Z,82.52
2022-12-18T10:19:30.713Z,81.35
2022-12-18T10:22:06.222Z,81.40
2022-12-18T10:24:37.547Z,81.29
2022-12-18T10:27:15.694Z,80.95
2022-12-18T10:29:44.444Z,81.48
2022-12-18T10:32:16.792Z,81.04
2022-12-18T10:34:48.791Z,80.89
2022-12-18T10:37:19.569Z,79.93
2022-12-18T10:39:47.799Z,80.35
2022-12-18T10:42:20.162Z,79.71
2022-12-18T10:44:48.158Z,81.44
2022-12-18T10:47:18.085Z,80.98
2022-12-18T10:49:54.074Z,81.21
2022-12-18T10:52:24.126Z,81.37
2022-12-18T10:54:59.251Z,81.63
2022-12-18T10:57:37.056Z,81.02
2022-12-18T11:00:24.412Z,80.38
2022-12-18T11:02:52.784Z,80.67
2022-12-18T11:05:33.959Z,80.82
2022-12-18T11:08:02.670Z,80.93
2022-12-18T11:10:33.146Z,80.26
2022-12-18T11:13:12.966Z,81.13
2022-12-18T11:15:42.689Z,81.27
2022-12-18T11:18:19.045Z,81.06
2022-12-18T11:20:58.523Z,81.32
2022-12-18T11:23:27.725Z,81.80
2022-12-18T11:26:00.283Z,81.20
2022-12-18T11:28:31.707Z,80.74
2022-12-18T11:31:19.632Z,80.49
2022-12-18T11:34:19.773Z,81.41
2022-12-18T11:36:41.701Z,81.51
2022-12-18T11:39:14.542Z,81.37
2022-12-18T11:42:06.513Z,81.22
2022-12-18T11:44:40.838Z,80.43
2022-12-18T11:47:15.321Z,80.49
2022-12-18T11:49:43.992Z,80.84
2022-12-18T11:52:18.858Z,80.15
2022-12-18T11:54:47.014Z,80.75
2022-12-18T11:57:22.214Z,80.88
2022-12-18T11:59:54.584Z,80.24
2022-12-18T12:02:34.860Z,79.89
2022-12-18T12:05:23.318Z,81.13
2022-12-18T12:07:58.701Z,80.32
2022-12-18T12:10:36.236Z,80.47
2022-12-18T12:13:18.064Z,80.82
2022-12-18T12:15:54.114Z,80.12
2022-12-18T12:18:28.133Z,80.48
2022-12-18T12:21:02.318Z,79.80
2022-12-18T12:23:39.643Z,80.78
2022-12-18T12:26:09.840Z,79.88
2022-12-18T12:29:00.704Z,80.71
2022-12-18T12:31:41.394Z,80.91
2022-12-18T12:34:15.051Z,81.00
2022-12-18T12:36:55.390Z,80.59
2022-12-18T12:39:29.524Z,81.47
2022-12-18T12:42:15.401Z,81.29
2022-12-18T12:44:49.098Z,82.08
2022-12-18T12:47:27.806Z,81.76
2022-12-18T12:49:56.778Z,82.66
2022-12-18T12:52:30.890Z,82.53
2022-12-18T12:55:00.804Z,81.80
2022-12-18T12:57:34.887Z,82.32
2022-12-18T13:00:05.855Z,82.23
2022-12-18T13:02:39.638Z,81.69
2022-12-18T13:05:15.695Z,83.35
2022-12-18T13:07:50.125Z,83.35
2022-12-18T13:10:43.832Z,82.61
2022-12-18T13:13:13.382Z,83.35
2022-12-18T13:15:44.308Z,83.57
2022-12-18T13:18:17.197Z,83.74
2022-12-18T13:20:53.161Z,83.34
2022-12-18T13:23:30.715Z,82.92
2022-12-18T13:26:01.553Z,83.28
2022-12-18T13:28:54.227Z,83.45
2022-12-18T13:32:10.283Z,84.11
2022-12-18T13:34:38.655Z,84.09
2022-12-18T13:37:44.070Z,84.21
2022-12-18T13:40:55.098Z,83.89
2022-12-18T13:43:32.909Z,83.91
2022-12-18T13:46:23.581Z,84.99
2022-12-18T13:48:56.125Z,84.54
2022-12-18T13:51:24.857Z,84.69
2022-12-18T13:53:54.224Z,85.33
2022-12-18T13:56:25.572Z,84.05
2022-12-18T13:59:23.254Z,84.75
2022-12-18T14:01:55.962Z,84.69
2022-12-18T14:04:27.553Z,85.58
2022-12-18T14:06:58.724Z,86.12
2022-12-18T14:09:29.707Z,85.95
2022-12-18T14:12:19.437Z,85.65
2022-12-18T14:14:53.112Z,85.19
2022-12-18T14:17:25.019Z,85.81
2022-12-18T14:19:53.744Z,85.01
2022-12-18T14:22:22.930Z,86.01
2022-12-18T14:25:08.920Z,86.65
2022-12-18T14:27:40.021Z,87.21
2022-12-18T14:30:26.467Z,86.99
2022-12-18T14:33:02.970Z,87.92
2022-12-18T14:35:32.436Z,87.99
2022-12-18T14:38:24.361Z,87.04
2022-12-18T14:41:00.419Z,87.26
2022-12-18T14:43:31.364Z,87.39
2022-12-18T14:46:01.546Z,87.78
2022-12-18T14:48:38.941Z,87.19
2022-12-18T14:51:09.241Z,87.68
2022-12-18T14:53:42.578Z,87.67
2022-12-18T14:56:41.782Z,87.80
2022-12-18T14:59:24.680Z,87.84
2022-12-18T15:02:14.814Z,88.11
2022-12-18T15:05:12.879Z,88.14
2022-12-18T15:07:48.753Z,88.45
2022-12-18T15:10:32.134Z,87.99
2022-12-18T15:13:31.781Z,88.98
2022-12-18T15:16:18.039Z,88.82
2022-12-18T15:19:01.625Z,89.16
2022-12-18T15:21:35.440Z,89.38
2022-12-18T15:24:17.970Z,90.05
2022-12-18T15:26:56.020Z,89.74
2022-12-18T15:29:38.641Z,89.75
2022-12-18T15:32:25.961Z,90.51
2022-12-18T15:35:21.750Z,90.34
2022-12-18T15:37:54.885Z,90.15
2022-12-18T15:40:30.081Z,90.26
2022-12-18T15:43:15.885Z,89.88
2022-12-18T15:45:47.598Z,90.19
2022-12-18T15:48:32.827Z,89.49
2022-12-18T15:51:37.344Z,89.70
2022-12-18T15:54:45.628Z,90.23
2022-12-18T15:57:29.454Z,90.79
2022-12-18T16:00:15.798Z,90.17
2022-12-18T16:02:54.648Z,91.15
2022-12-18T16:05:39.816Z,91.53
2022-12-18T16:08:12.814Z,90.91
2022-12-18T16:10:54.874Z,91.17
2022-12-18T16:13:31.309Z,90.77
2022-12-18T16:16:15.039Z,90.84
2022-12-18T16:24:46.854Z,91.05
2022-12-18T16:27:27.211Z,91.71
2022-12-18T16:30:06.745Z,90.51
2022-12-18T16:32:39.575Z,90.97
2022-12-18T16:35:23.155Z,90.33
2022-12-18T16:37:59.127Z,90.09
2022-12-18T16:41:09.922Z,89.85
2022-12-18T16:43:54.959Z,89.53
2022-12-18T16:46:33.808Z,90.27
2022-12-18T16:49:20.986Z,89.76
2022-12-18T16:51:54.057Z,90.37
2022-12-18T16:54:30.357Z,90.00
2022-12-18T16:57:09.373Z,90.51
2022-12-18T16:59:56.030Z,90.88
2022-12-18T17:02:30.370Z,90.07
2022-12-18T17:05:08.740Z,90.09
2022-12-18T17:07:48.155Z,90.93
2022-12-18T17:10:27.041Z,90.80
2022-12-18T17:13:25.911Z,90.91
2022-12-18T17:16:23.753Z,91.23
2022-12-18T17:19:03.609Z,91.28
2022-12-18T17:21:35.984Z,90.84
2022-12-18T17:24:12.525Z,91.22
2022-12-18T17:26:52.121Z,91.85
2022-12-18T17:29:32.856Z,92.12
2022-12-18T17:35:07.526Z,93.17
2022-12-18T17:38:04.577Z,93.47
2022-12-18T17:40:36.277Z,93.30
2022-12-18T17:43:26.640Z,94.29
2022-12-18T17:46:13.337Z,93.96
2022-12-18T17:48:59.354Z,93.79
2022-12-18T17:51:39.201Z,94.33
2022-12-18T17:54:16.419Z,93.84
2022-12-18T17:56:49.570Z,93.77
2022-12-18T17:59:28.237Z,93.52
2022-12-18T18:02:03.934Z,94.04
2022-12-18T18:04:43.166Z,93.95
2022-12-18T18:07:30.310Z,93.27
2022-12-18T18:10:12.734Z,93.62
2022-12-18T18:13:01.725Z,93.18
2022-12-18T18:15:43.328Z,93.20
2022-12-18T18:18:28.692Z,93.73
2022-12-18T18:21:01.077Z,94.37
2022-12-18T18:23:42.477Z,94.04
2022-12-18T18:26:19.206Z,94.26
2022-12-18T18:28:55.526Z,93.97
2022-12-18T18:31:33.623Z,93.12
2022-12-18T18:34:14.580Z,93.76
2022-12-18T18:36:45.602Z,94.09
2022-12-18T18:39:15.614Z,93.88
2022-12-18T18:41:48.672Z,93.38
2022-12-18T18:44:29.624Z,93.77
2022-12-18T18:47:24.673Z,93.46
2022-12-18T18:50:09.026Z,92.35
2022-12-18T18:52:44.595Z,91.88
2022-12-18T18:55:32.694Z,91.08
2022-12-18T18:58:11.326Z,91.79
2022-12-18T19:00:49.114Z,90.84
2022-12-18T19:03:24.753Z,91.21
2022-12-18T19:06:07.297Z,90.77
2022-12-18T19:08:38.141Z,91.81
2022-12-18T19:11:36.205Z,92.37
2022-12-18T19:14:15.122Z,91.11
2022-12-18T19:16:54.684Z,91.97
2022-12-18T19:19:33.894Z,92.86
2022-12-18T19:22:09.841Z,93.01
2022-12-18T19:24:43.079Z,92.99
2022-12-18T19:27:23.423Z,91.12
2022-12-18T19:30:02.145Z,91.21
2022-12-18T19:32:34.386Z,92.09
2022-12-18T19:35:13.300Z,92.40
2022-12-18T19:37:58.283Z,92.65
2022-12-18T19:40:35.785Z,92.81
2022-12-18T19:43:18.515Z,93.24
2022-12-18T19:45:51.923Z,92.35
2022-12-18T19:48:34.819Z,92.67
2022-12-18T19:51:20.577Z,93.64
2022-12-18T19:53:59.893Z,93.59
2022-12-18T19:56:53.653Z,93.48
2022-12-18T19:59:27.489Z,92.23
2022-12-18T20:02:00.212Z,92.98
2022-12-18T20:04:35.439Z,92.36
2022-12-18T20:07:06.518Z,92.56
2022-12-18T20:10:02.627Z,92.71
2022-12-18T20:12:46.814Z,92.75
2022-12-18T20:15:22.972Z,93.03
2022-12-18T20:18:11.221Z,93.40
2022-12-18T20:20:50.349Z,93.61
2022-12-18T20:23:23.228Z,93.80
2022-12-18T20:26:27.576Z,93.66
2022-12-18T20:29:04.121Z,93.74
2022-12-18T20:31:36.741Z,94.18
2022-12-18T20:34:11.857Z,93.61
2022-12-18T20:36:42.557Z,93.74
2022-12-18T20:39:20.739Z,94.25
2022-12-18T20:42:01.879Z,95.13
2022-12-18T20:44:34.348Z,93.72
2022-12-18T20:47:10.523Z,92.96
2022-12-18T20:49:45.327Z,92.84
2022-12-18T20:52:19.042Z,93.18
2022-12-18T20:54:49.578Z,93.66
2022-12-18T20:57:20.923Z,93.30
2022-12-18T20:59:52.800Z,92.63
2022-12-18T21:02:30.788Z,92.95
2022-12-18T21:05:04.304Z,92.97
2022-12-18T21:07:34.812Z,92.84
2022-12-18T21:10:08.297Z,92.44
2022-12-18T21:12:58.871Z,92.88
2022-12-18T21:15:34.482Z,92.80
2022-12-18T21:18:09.197Z,91.79
2022-12-18T21:20:38.413Z,91.54
2022-12-18T21:23:21.919Z,91.82
2022-12-18T21:25:56.061Z,91.81
2022-12-18T21:28:28.619Z,91.86
2022-12-18T21:31:01.036Z,91.15
2022-12-18T21:33:32.821Z,92.02
2022-12-18T21:36:04.903Z,90.67
2022-12-18T21:38:32.972Z,92.06
2022-12-18T21:41:01.109Z,91.90
2022-12-18T21:43:54.844Z,92.14
2022-12-18T21:46:31.618Z,91.94
2022-12-18T21:49:05.615Z,90.75
2022-12-18T21:51:38.169Z,92.32
2022-12-18T21:54:10.474Z,92.10
2022-12-18T21:56:57.408Z,92.34
2022-12-18T21:59:35.363Z,93.09
2022-12-18T22:02:14.786Z,92.80
2022-12-18T22:04:47.205Z,93.85
2022-12-18T22:07:16.935Z,93.64
2022-12-18T22:09:50.940Z,93.86
2022-12-18T22:12:44.488Z,93.44
2022-12-18T22:15:25.850Z,93.20
2022-12-18T22:17:59.519Z,94.31
2022-12-18T22:20:35.632Z,93.74
2022-12-18T22:23:15.651Z,93.40
2022-12-18T22:25:51.259Z,93.57
2022-12-18T22:28:40.721Z,93.99
2022-12-18T22:31:28.940Z,95.09
2022-12-18T22:34:06.975Z,95.09
2022-12-18T22:36:41.372Z,94.18
2022-12-18T22:39:21.394Z,94.25
2022-12-18T22:41:54.083Z,94.48
2022-12-18T22:44:26.529Z,94.15
2022-12-18T22:47:08.343Z,94.38
2022-12-18T22:49:39.173Z,94.63
2022-12-18T22:52:15.272Z,94.59
2022-12-18T22:54:48.679Z,93.98
2022-12-18T22:57:22.642Z,94.82
2022-12-18T22:59:55.273Z,95.33
2022-12-18T23:02:27.224Z,94.77
2022-12-18T23:04:57.957Z,94.50
2022-12-18T23:07:31.280Z,94.27
2022-12-18T23:10:08.038Z,95.04
2022-12-18T23:12:43.174Z,94.58
2022-12-18T23:15:17.810Z,94.65
2022-12-18T23:18:02.960Z,93.80
2022-12-18T23:20:39.753Z,93.92
2022-12-18T23:23:11.389Z,94.30
2022-12-18T23:25:50.142Z,93.47
2022-12-18T23:28:22.023Z,93.56
2022-12-18T23:30:53.005Z,94.14
2022-12-18T23:33:25.430Z,93.89
2022-12-18T23:36:03.476Z,92.70
2022-12-18T23:38:40.978Z,93.22
2022-12-18T23:41:11.975Z,92.03
2022-12-18T23:43:46.615Z,92.10
2022-12-18T23:46:20.677Z,92.59
2022-12-18T23:48:54.607Z,92.85
2022-12-18T23:51:34.659Z,93.81
2022-12-18T23:54:13.036Z,93.44
2022-12-18T23:56:44.845Z,92.84
2022-12-18T23:59:24.019Z,92.91
